sensor_id;sensor_type;location;lat;lon;timestamp;P1;durP1;ratioP1;P2;durP2;ratioP2
10910;SDS011;5508;49.150;11.030;2023-06-26T00:01:56;7.90;;;7.20;;
10910;SDS011;5508;49.150;11.030;2023-06-26T00:04:57;8.27;;;7.40;;
10910;SDS011;5508;49.150;11.030;2023-06-26T00:07:58;8.00;;;7.20;;
10910;SDS011;5508;49.150;11.030;2023-06-26T00:11:00;7.90;;;7.20;;
10910;SDS011;5508;49.150;11.030;2023-06-26T00:14:00;8.90;;;7.63;;
10910;SDS011;5508;49.150;11.030;2023-06-26T00:17:01;9.47;;;7.87;;
10910;SDS011;5508;49.150;11.030;2023-06-26T00:20:02;8.03;;;7.33;;
10910;SDS011;5508;49.150;11.030;2023-06-26T00:23:05;8.13;;;7.33;;
10910;SDS011;5508;49.150;11.030;2023-06-26T00:26:07;7.83;;;7.13;;
10910;SDS011;5508;49.150;11.030;2023-06-26T00:29:09;7.53;;;6.83;;
10910;SDS011;5508;49.150;11.030;2023-06-26T00:32:09;8.40;;;7.60;;
10910;SDS011;5508;49.150;11.030;2023-06-26T00:35:10;8.13;;;7.40;;
10910;SDS011;5508;49.150;11.030;2023-06-26T00:38:11;8.13;;;7.30;;
10910;SDS011;5508;49.150;11.030;2023-06-26T00:41:11;8.83;;;7.93;;
10910;SDS011;5508;49.150;11.030;2023-06-26T00:44:12;7.93;;;7.23;;
10910;SDS011;5508;49.150;11.030;2023-06-26T00:47:14;8.50;;;7.70;;
10910;SDS011;5508;49.150;11.030;2023-06-26T00:50:16;8.83;;;7.93;;
10910;SDS011;5508;49.150;11.030;2023-06-26T00:53:17;9.07;;;8.17;;
10910;SDS011;5508;49.150;11.030;2023-06-26T00:56:18;8.30;;;7.60;;
10910;SDS011;5508;49.150;11.030;2023-06-26T00:59:19;9.43;;;8.47;;
10910;SDS011;5508;49.150;11.030;2023-06-26T01:02:20;8.57;;;7.77;;
10910;SDS011;5508;49.150;11.030;2023-06-26T01:05:21;10.00;;;8.17;;
10910;SDS011;5508;49.150;11.030;2023-06-26T01:08:21;8.50;;;7.57;;
10910;SDS011;5508;49.150;11.030;2023-06-26T01:11:23;8.27;;;7.47;;
10910;SDS011;5508;49.150;11.030;2023-06-26T01:14:23;8.57;;;7.77;;
10910;SDS011;5508;49.150;11.030;2023-06-26T01:17:24;9.50;;;7.60;;
10910;SDS011;5508;49.150;11.030;2023-06-26T01:20:25;9.13;;;7.70;;
10910;SDS011;5508;49.150;11.030;2023-06-26T01:23:31;9.93;;;8.93;;
10910;SDS011;5508;49.150;11.030;2023-06-26T01:26:48;8.90;;;8.10;;
10910;SDS011;5508;49.150;11.030;2023-06-26T01:29:51;9.27;;;7.47;;
10910;SDS011;5508;49.150;11.030;2023-06-26T01:32:52;8.70;;;7.80;;
10910;SDS011;5508;49.150;11.030;2023-06-26T01:35:53;10.43;;;8.60;;
10910;SDS011;5508;49.150;11.030;2023-06-26T01:38:54;8.67;;;7.87;;
10910;SDS011;5508;49.150;11.030;2023-06-26T01:41:55;8.97;;;8.10;;
10910;SDS011;5508;49.150;11.030;2023-06-26T01:44:55;9.13;;;8.23;;
10910;SDS011;5508;49.150;11.030;2023-06-26T01:47:57;10.00;;;8.20;;
10910;SDS011;5508;49.150;11.030;2023-06-26T01:51:00;9.73;;;8.17;;
10910;SDS011;5508;49.150;11.030;2023-06-26T01:54:01;9.20;;;7.97;;
10910;SDS011;5508;49.150;11.030;2023-06-26T01:57:03;9.13;;;8.30;;
10910;SDS011;5508;49.150;11.030;2023-06-26T02:00:05;9.63;;;8.00;;
10910;SDS011;5508;49.150;11.030;2023-06-26T02:03:10;9.70;;;8.70;;
10910;SDS011;5508;49.150;11.030;2023-06-26T02:06:10;9.60;;;8.03;;
10910;SDS011;5508;49.150;11.030;2023-06-26T02:09:11;8.80;;;8.00;;
10910;SDS011;5508;49.150;11.030;2023-06-26T02:12:12;9.43;;;8.53;;
10910;SDS011;5508;49.150;11.030;2023-06-26T02:15:12;9.23;;;8.33;;
10910;SDS011;5508;49.150;11.030;2023-06-26T02:18:13;9.13;;;8.23;;
10910;SDS011;5508;49.150;11.030;2023-06-26T02:21:14;10.67;;;8.70;;
10910;SDS011;5508;49.150;11.030;2023-06-26T02:24:14;9.33;;;8.43;;
10910;SDS011;5508;49.150;11.030;2023-06-26T02:27:15;9.50;;;8.57;;
10910;SDS011;5508;49.150;11.030;2023-06-26T02:30:16;10.90;;;8.30;;
10910;SDS011;5508;49.150;11.030;2023-06-26T02:33:16;9.40;;;8.50;;
10910;SDS011;5508;49.150;11.030;2023-06-26T02:36:17;10.43;;;9.23;;
10910;SDS011;5508;49.150;11.030;2023-06-26T02:39:18;9.67;;;8.60;;
10910;SDS011;5508;49.150;11.030;2023-06-26T02:42:18;9.27;;;8.37;;
10910;SDS011;5508;49.150;11.030;2023-06-26T02:45:19;8.87;;;8.07;;
10910;SDS011;5508;49.150;11.030;2023-06-26T02:48:19;8.83;;;8.00;;
10910;SDS011;5508;49.150;11.030;2023-06-26T02:51:20;9.23;;;8.33;;
10910;SDS011;5508;49.150;11.030;2023-06-26T02:54:20;9.30;;;8.30;;
10910;SDS011;5508;49.150;11.030;2023-06-26T02:57:21;9.60;;;8.60;;
10910;SDS011;5508;49.150;11.030;2023-06-26T03:00:22;9.50;;;8.50;;
10910;SDS011;5508;49.150;11.030;2023-06-26T03:03:22;9.10;;;8.10;;
10910;SDS011;5508;49.150;11.030;2023-06-26T03:06:23;8.43;;;7.63;;
10910;SDS011;5508;49.150;11.030;2023-06-26T03:09:24;9.40;;;8.40;;
10910;SDS011;5508;49.150;11.030;2023-06-26T03:12:25;10.10;;;8.60;;
10910;SDS011;5508;49.150;11.030;2023-06-26T03:15:25;9.43;;;8.30;;
10910;SDS011;5508;49.150;11.030;2023-06-26T03:18:26;13.60;;;8.27;;
10910;SDS011;5508;49.150;11.030;2023-06-26T03:21:27;9.70;;;8.70;;
10910;SDS011;5508;49.150;11.030;2023-06-26T03:24:28;9.27;;;8.37;;
10910;SDS011;5508;49.150;11.030;2023-06-26T03:27:28;9.07;;;8.17;;
10910;SDS011;5508;49.150;11.030;2023-06-26T03:30:29;9.23;;;8.33;;
10910;SDS011;5508;49.150;11.030;2023-06-26T03:33:30;10.77;;;9.17;;
10910;SDS011;5508;49.150;11.030;2023-06-26T03:36:30;9.80;;;8.60;;
10910;SDS011;5508;49.150;11.030;2023-06-26T03:39:31;11.30;;;8.57;;
10910;SDS011;5508;49.150;11.030;2023-06-26T03:42:31;9.37;;;8.00;;
10910;SDS011;5508;49.150;11.030;2023-06-26T03:45:32;8.87;;;7.50;;
10910;SDS011;5508;49.150;11.030;2023-06-26T03:48:33;8.77;;;7.87;;
10910;SDS011;5508;49.150;11.030;2023-06-26T03:51:33;9.50;;;8.40;;
10910;SDS011;5508;49.150;11.030;2023-06-26T03:54:34;12.47;;;8.30;;
10910;SDS011;5508;49.150;11.030;2023-06-26T03:57:34;9.57;;;8.63;;
10910;SDS011;5508;49.150;11.030;2023-06-26T04:00:35;8.93;;;8.03;;
10910;SDS011;5508;49.150;11.030;2023-06-26T04:03:36;9.47;;;8.57;;
10910;SDS011;5508;49.150;11.030;2023-06-26T04:06:36;11.47;;;8.60;;
10910;SDS011;5508;49.150;11.030;2023-06-26T04:09:37;11.00;;;7.53;;
10910;SDS011;5508;49.150;11.030;2023-06-26T04:12:38;9.57;;;8.67;;
10910;SDS011;5508;49.150;11.030;2023-06-26T04:15:38;10.03;;;8.17;;
10910;SDS011;5508;49.150;11.030;2023-06-26T04:18:39;9.23;;;7.87;;
10910;SDS011;5508;49.150;11.030;2023-06-26T04:21:39;9.87;;;7.80;;
10910;SDS011;5508;49.150;11.030;2023-06-26T04:24:40;10.83;;;7.47;;
10910;SDS011;5508;49.150;11.030;2023-06-26T04:27:41;9.40;;;7.40;;
10910;SDS011;5508;49.150;11.030;2023-06-26T04:30:41;9.67;;;8.73;;
10910;SDS011;5508;49.150;11.030;2023-06-26T04:33:42;11.30;;;7.43;;
10910;SDS011;5508;49.150;11.030;2023-06-26T04:36:43;12.97;;;7.60;;
10910;SDS011;5508;49.150;11.030;2023-06-26T04:39:47;10.80;;;7.90;;
10910;SDS011;5508;49.150;11.030;2023-06-26T04:42:48;11.57;;;8.03;;
10910;SDS011;5508;49.150;11.030;2023-06-26T04:45:49;8.90;;;8.00;;
10910;SDS011;5508;49.150;11.030;2023-06-26T04:48:49;10.23;;;7.50;;
10910;SDS011;5508;49.150;11.030;2023-06-26T04:51:50;12.27;;;8.23;;
10910;SDS011;5508;49.150;11.030;2023-06-26T04:54:50;10.03;;;7.93;;
10910;SDS011;5508;49.150;11.030;2023-06-26T04:57:51;10.77;;;7.83;;
10910;SDS011;5508;49.150;11.030;2023-06-26T05:00:52;10.43;;;7.57;;
10910;SDS011;5508;49.150;11.030;2023-06-26T05:03:53;9.67;;;7.73;;
10910;SDS011;5508;49.150;11.030;2023-06-26T05:06:54;12.90;;;7.77;;
10910;SDS011;5508;49.150;11.030;2023-06-26T05:09:54;10.97;;;8.23;;
10910;SDS011;5508;49.150;11.030;2023-06-26T05:12:55;13.77;;;7.27;;
10910;SDS011;5508;49.150;11.030;2023-06-26T05:15:55;9.73;;;7.00;;
10910;SDS011;5508;49.150;11.030;2023-06-26T05:18:56;10.60;;;7.73;;
10910;SDS011;5508;49.150;11.030;2023-06-26T05:21:56;7.90;;;7.10;;
10910;SDS011;5508;49.150;11.030;2023-06-26T05:24:59;8.17;;;6.47;;
10910;SDS011;5508;49.150;11.030;2023-06-26T05:28:00;9.17;;;6.90;;
10910;SDS011;5508;49.150;11.030;2023-06-26T05:31:02;9.30;;;6.73;;
10910;SDS011;5508;49.150;11.030;2023-06-26T05:34:04;7.73;;;6.47;;
10910;SDS011;5508;49.150;11.030;2023-06-26T05:37:07;12.17;;;8.13;;
10910;SDS011;5508;49.150;11.030;2023-06-26T05:40:08;7.50;;;6.57;;
10910;SDS011;5508;49.150;11.030;2023-06-26T05:43:10;9.47;;;6.80;;
10910;SDS011;5508;49.150;11.030;2023-06-26T05:46:11;7.80;;;7.00;;
10910;SDS011;5508;49.150;11.030;2023-06-26T05:49:11;8.83;;;6.37;;
10910;SDS011;5508;49.150;11.030;2023-06-26T05:52:12;9.87;;;6.70;;
10910;SDS011;5508;49.150;11.030;2023-06-26T05:55:13;10.47;;;6.80;;
10910;SDS011;5508;49.150;11.030;2023-06-26T05:58:14;8.87;;;6.57;;
10910;SDS011;5508;49.150;11.030;2023-06-26T06:01:16;9.23;;;7.07;;
10910;SDS011;5508;49.150;11.030;2023-06-26T06:04:16;9.90;;;6.50;;
10910;SDS011;5508;49.150;11.030;2023-06-26T06:07:17;7.37;;;6.00;;
10910;SDS011;5508;49.150;11.030;2023-06-26T06:10:18;8.30;;;6.70;;
10910;SDS011;5508;49.150;11.030;2023-06-26T06:13:18;8.57;;;6.50;;
10910;SDS011;5508;49.150;11.030;2023-06-26T06:16:19;7.23;;;6.30;;
10910;SDS011;5508;49.150;11.030;2023-06-26T06:19:19;8.32;;;6.13;;
10910;SDS011;5508;49.150;11.030;2023-06-26T06:22:20;7.43;;;6.50;;
10910;SDS011;5508;49.150;11.030;2023-06-26T06:25:21;8.25;;;6.60;;
10910;SDS011;5508;49.150;11.030;2023-06-26T06:28:22;7.30;;;6.30;;
10910;SDS011;5508;49.150;11.030;2023-06-26T06:31:22;7.18;;;6.45;;
10910;SDS011;5508;49.150;11.030;2023-06-26T06:34:23;7.00;;;6.28;;
10910;SDS011;5508;49.150;11.030;2023-06-26T06:37:23;8.23;;;6.00;;
10910;SDS011;5508;49.150;11.030;2023-06-26T06:40:24;8.73;;;6.65;;
10910;SDS011;5508;49.150;11.030;2023-06-26T06:43:25;8.43;;;6.60;;
10910;SDS011;5508;49.150;11.030;2023-06-26T06:46:26;7.05;;;6.30;;
10910;SDS011;5508;49.150;11.030;2023-06-26T06:49:27;8.65;;;5.60;;
10910;SDS011;5508;49.150;11.030;2023-06-26T06:52:27;8.23;;;6.50;;
10910;SDS011;5508;49.150;11.030;2023-06-26T06:55:28;6.72;;;6.13;;
10910;SDS011;5508;49.150;11.030;2023-06-26T06:58:29;7.03;;;5.78;;
10910;SDS011;5508;49.150;11.030;2023-06-26T07:01:33;9.40;;;5.82;;
10910;SDS011;5508;49.150;11.030;2023-06-26T07:04:34;8.40;;;6.53;;
10910;SDS011;5508;49.150;11.030;2023-06-26T07:07:35;6.88;;;6.28;;
10910;SDS011;5508;49.150;11.030;2023-06-26T07:10:36;6.05;;;5.55;;
10910;SDS011;5508;49.150;11.030;2023-06-26T07:13:37;9.32;;;6.70;;
10910;SDS011;5508;49.150;11.030;2023-06-26T07:16:37;8.73;;;6.40;;
10910;SDS011;5508;49.150;11.030;2023-06-26T07:19:38;7.28;;;5.82;;
10910;SDS011;5508;49.150;11.030;2023-06-26T07:22:39;7.03;;;6.32;;
10910;SDS011;5508;49.150;11.030;2023-06-26T07:25:39;6.97;;;6.28;;
10910;SDS011;5508;49.150;11.030;2023-06-26T07:28:40;6.28;;;5.78;;
10910;SDS011;5508;49.150;11.030;2023-06-26T07:31:40;8.88;;;6.00;;
10910;SDS011;5508;49.150;11.030;2023-06-26T07:34:41;7.97;;;6.25;;
10910;SDS011;5508;49.150;11.030;2023-06-26T07:37:42;7.03;;;6.25;;
10910;SDS011;5508;49.150;11.030;2023-06-26T07:40:43;7.13;;;6.13;;
10910;SDS011;5508;49.150;11.030;2023-06-26T07:43:43;6.90;;;6.07;;
10910;SDS011;5508;49.150;11.030;2023-06-26T07:46:44;7.53;;;6.60;;
10910;SDS011;5508;49.150;11.030;2023-06-26T07:49:44;7.20;;;6.50;;
10910;SDS011;5508;49.150;11.030;2023-06-26T07:52:45;7.70;;;6.53;;
10910;SDS011;5508;49.150;11.030;2023-06-26T07:55:46;7.85;;;6.72;;
10910;SDS011;5508;49.150;11.030;2023-06-26T07:58:46;7.32;;;6.63;;
10910;SDS011;5508;49.150;11.030;2023-06-26T08:01:47;7.90;;;6.88;;
10910;SDS011;5508;49.150;11.030;2023-06-26T08:04:48;7.30;;;6.43;;
10910;SDS011;5508;49.150;11.030;2023-06-26T08:07:48;8.55;;;6.85;;
10910;SDS011;5508;49.150;11.030;2023-06-26T08:10:49;8.50;;;7.07;;
10910;SDS011;5508;49.150;11.030;2023-06-26T08:13:49;9.80;;;7.18;;
10910;SDS011;5508;49.150;11.030;2023-06-26T08:16:50;8.30;;;6.60;;
10910;SDS011;5508;49.150;11.030;2023-06-26T08:19:50;8.80;;;6.15;;
10910;SDS011;5508;49.150;11.030;2023-06-26T08:22:51;9.10;;;7.05;;
10910;SDS011;5508;49.150;11.030;2023-06-26T08:25:53;7.00;;;6.00;;
10910;SDS011;5508;49.150;11.030;2023-06-26T08:28:54;7.50;;;6.80;;
10910;SDS011;5508;49.150;11.030;2023-06-26T08:31:55;7.38;;;6.68;;
10910;SDS011;5508;49.150;11.030;2023-06-26T08:34:55;7.13;;;6.43;;
10910;SDS011;5508;49.150;11.030;2023-06-26T08:37:56;9.18;;;6.82;;
10910;SDS011;5508;49.150;11.030;2023-06-26T08:40:56;8.93;;;6.38;;
10910;SDS011;5508;49.150;11.030;2023-06-26T08:43:57;8.60;;;6.18;;
10910;SDS011;5508;49.150;11.030;2023-06-26T08:46:59;7.05;;;6.35;;
10910;SDS011;5508;49.150;11.030;2023-06-26T08:50:13;7.32;;;6.63;;
10910;SDS011;5508;49.150;11.030;2023-06-26T08:56:41;8.82;;;6.45;;
10910;SDS011;5508;49.150;11.030;2023-06-26T08:59:45;7.18;;;6.47;;
10910;SDS011;5508;49.150;11.030;2023-06-26T09:02:46;9.50;;;5.63;;
10910;SDS011;5508;49.150;11.030;2023-06-26T09:05:47;6.30;;;5.80;;
10910;SDS011;5508;49.150;11.030;2023-06-26T09:08:48;6.90;;;6.30;;
10910;SDS011;5508;49.150;11.030;2023-06-26T09:11:48;6.53;;;5.80;;
10910;SDS011;5508;49.150;11.030;2023-06-26T09:14:49;6.57;;;5.90;;
10910;SDS011;5508;49.150;11.030;2023-06-26T09:17:50;6.63;;;5.82;;
10910;SDS011;5508;49.150;11.030;2023-06-26T09:20:57;6.45;;;5.25;;
10910;SDS011;5508;49.150;11.030;2023-06-26T09:23:58;6.72;;;6.10;;
10910;SDS011;5508;49.150;11.030;2023-06-26T09:26:58;6.90;;;6.13;;
10910;SDS011;5508;49.150;11.030;2023-06-26T09:29:59;6.38;;;5.55;;
10910;SDS011;5508;49.150;11.030;2023-06-26T09:33:17;7.15;;;6.28;;
10910;SDS011;5508;49.150;11.030;2023-06-26T09:36:20;7.90;;;5.75;;
10910;SDS011;5508;49.150;11.030;2023-06-26T09:39:24;10.40;;;6.57;;
10910;SDS011;5508;49.150;11.030;2023-06-26T09:42:25;7.40;;;6.00;;
10910;SDS011;5508;49.150;11.030;2023-06-26T09:45:26;6.78;;;6.07;;
10910;SDS011;5508;49.150;11.030;2023-06-26T09:48:28;7.22;;;5.40;;
10910;SDS011;5508;49.150;11.030;2023-06-26T09:51:29;6.28;;;5.68;;
10910;SDS011;5508;49.150;11.030;2023-06-26T09:54:31;5.53;;;5.03;;
10910;SDS011;5508;49.150;11.030;2023-06-26T09:57:34;6.00;;;5.50;;
10910;SDS011;5508;49.150;11.030;2023-06-26T10:00:35;5.68;;;5.18;;
10910;SDS011;5508;49.150;11.030;2023-06-26T10:03:35;5.45;;;4.95;;
10910;SDS011;5508;49.150;11.030;2023-06-26T10:06:37;5.72;;;4.68;;
10910;SDS011;5508;49.150;11.030;2023-06-26T10:09:42;6.50;;;4.75;;
10910;SDS011;5508;49.150;11.030;2023-06-26T10:12:44;5.20;;;4.80;;
10910;SDS011;5508;49.150;11.030;2023-06-26T10:15:50;7.90;;;5.07;;
10910;SDS011;5508;49.150;11.030;2023-06-26T10:18:56;6.22;;;5.35;;
10910;SDS011;5508;49.150;11.030;2023-06-26T10:22:02;5.38;;;4.55;;
10910;SDS011;5508;49.150;11.030;2023-06-26T10:25:03;6.15;;;5.05;;
10910;SDS011;5508;49.150;11.030;2023-06-26T10:28:08;7.82;;;4.72;;
10910;SDS011;5508;49.150;11.030;2023-06-26T10:31:11;7.72;;;5.15;;
10910;SDS011;5508;49.150;11.030;2023-06-26T10:34:12;5.40;;;4.90;;
10910;SDS011;5508;49.150;11.030;2023-06-26T10:37:13;5.70;;;5.03;;
10910;SDS011;5508;49.150;11.030;2023-06-26T10:40:17;9.85;;;5.07;;
10910;SDS011;5508;49.150;11.030;2023-06-26T10:43:29;5.25;;;4.80;;
10910;SDS011;5508;49.150;11.030;2023-06-26T10:46:32;6.18;;;4.55;;
10910;SDS011;5508;49.150;11.030;2023-06-26T10:49:35;6.32;;;4.90;;
10910;SDS011;5508;49.150;11.030;2023-06-26T10:52:36;6.35;;;4.93;;
10910;SDS011;5508;49.150;11.030;2023-06-26T10:55:39;7.30;;;4.95;;
10910;SDS011;5508;49.150;11.030;2023-06-26T10:58:42;5.68;;;4.72;;
10910;SDS011;5508;49.150;11.030;2023-06-26T11:02:05;5.13;;;4.63;;
10910;SDS011;5508;49.150;11.030;2023-06-26T11:05:05;6.43;;;4.50;;
10910;SDS011;5508;49.150;11.030;2023-06-26T11:08:07;4.65;;;4.25;;
10910;SDS011;5508;49.150;11.030;2023-06-26T11:11:08;6.00;;;4.85;;
10910;SDS011;5508;49.150;11.030;2023-06-26T11:14:09;4.95;;;4.45;;
10910;SDS011;5508;49.150;11.030;2023-06-26T11:17:11;5.05;;;4.53;;
10910;SDS011;5508;49.150;11.030;2023-06-26T11:20:15;4.63;;;4.22;;
10910;SDS011;5508;49.150;11.030;2023-06-26T11:23:16;5.07;;;4.57;;
10910;SDS011;5508;49.150;11.030;2023-06-26T11:26:22;4.45;;;3.65;;
10910;SDS011;5508;49.150;11.030;2023-06-26T11:29:23;4.38;;;3.97;;
10910;SDS011;5508;49.150;11.030;2023-06-26T11:32:25;4.07;;;3.60;;
10910;SDS011;5508;49.150;11.030;2023-06-26T11:35:27;5.47;;;4.03;;
10910;SDS011;5508;49.150;11.030;2023-06-26T11:38:36;6.30;;;3.92;;
10910;SDS011;5508;49.150;11.030;2023-06-26T11:41:38;4.55;;;4.15;;
10910;SDS011;5508;49.150;11.030;2023-06-26T11:44:40;4.68;;;3.70;;
10910;SDS011;5508;49.150;11.030;2023-06-26T11:47:43;4.78;;;4.32;;
10910;SDS011;5508;49.150;11.030;2023-06-26T11:50:43;7.00;;;4.40;;
10910;SDS011;5508;49.150;11.030;2023-06-26T11:53:44;4.30;;;3.90;;
10910;SDS011;5508;49.150;11.030;2023-06-26T11:56:51;4.43;;;4.03;;
10910;SDS011;5508;49.150;11.030;2023-06-26T12:00:09;4.72;;;4.13;;
10910;SDS011;5508;49.150;11.030;2023-06-26T12:03:11;4.80;;;4.30;;
10910;SDS011;5508;49.150;11.030;2023-06-26T12:06:12;5.45;;;4.00;;
10910;SDS011;5508;49.150;11.030;2023-06-26T12:09:13;4.28;;;3.88;;
10910;SDS011;5508;49.150;11.030;2023-06-26T12:12:14;4.00;;;3.50;;
10910;SDS011;5508;49.150;11.030;2023-06-26T12:15:17;4.47;;;3.92;;
10910;SDS011;5508;49.150;11.030;2023-06-26T12:18:17;4.20;;;3.63;;
10910;SDS011;5508;49.150;11.030;2023-06-26T12:24:42;3.65;;;3.35;;
10910;SDS011;5508;49.150;11.030;2023-06-26T12:27:44;4.15;;;3.75;;
10910;SDS011;5508;49.150;11.030;2023-06-26T12:30:46;8.25;;;4.13;;
10910;SDS011;5508;49.150;11.030;2023-06-26T12:33:47;5.70;;;4.40;;
10910;SDS011;5508;49.150;11.030;2023-06-26T12:36:49;4.03;;;3.63;;
10910;SDS011;5508;49.150;11.030;2023-06-26T12:39:54;4.70;;;4.07;;
10910;SDS011;5508;49.150;11.030;2023-06-26T12:42:56;4.90;;;4.20;;
10910;SDS011;5508;49.150;11.030;2023-06-26T12:45:57;6.22;;;4.32;;
10910;SDS011;5508;49.150;11.030;2023-06-26T12:48:57;5.43;;;4.30;;
10910;SDS011;5508;49.150;11.030;2023-06-26T12:51:58;5.15;;;4.68;;
10910;SDS011;5508;49.150;11.030;2023-06-26T12:55:00;5.15;;;4.65;;
10910;SDS011;5508;49.150;11.030;2023-06-26T12:58:00;5.25;;;4.82;;
10910;SDS011;5508;49.150;11.030;2023-06-26T13:01:02;4.80;;;4.35;;
10910;SDS011;5508;49.150;11.030;2023-06-26T13:04:05;7.10;;;4.30;;
10910;SDS011;5508;49.150;11.030;2023-06-26T13:07:09;8.43;;;4.65;;
10910;SDS011;5508;49.150;11.030;2023-06-26T13:10:10;4.78;;;4.28;;
10910;SDS011;5508;49.150;11.030;2023-06-26T13:13:11;5.53;;;5.00;;
10910;SDS011;5508;49.150;11.030;2023-06-26T13:16:11;5.13;;;4.68;;
10910;SDS011;5508;49.150;11.030;2023-06-26T13:19:12;9.63;;;5.50;;
10910;SDS011;5508;49.150;11.030;2023-06-26T13:22:13;5.72;;;5.00;;
10910;SDS011;5508;49.150;11.030;2023-06-26T13:25:13;5.55;;;4.40;;
10910;SDS011;5508;49.150;11.030;2023-06-26T13:28:14;5.78;;;5.22;;
10910;SDS011;5508;49.150;11.030;2023-06-26T13:31:15;5.30;;;4.80;;
10910;SDS011;5508;49.150;11.030;2023-06-26T13:34:20;5.88;;;4.85;;
10910;SDS011;5508;49.150;11.030;2023-06-26T13:37:22;5.70;;;5.10;;
10910;SDS011;5508;49.150;11.030;2023-06-26T13:40:22;5.13;;;4.63;;
10910;SDS011;5508;49.150;11.030;2023-06-26T13:43:23;5.80;;;4.38;;
10910;SDS011;5508;49.150;11.030;2023-06-26T13:46:24;5.88;;;4.88;;
10910;SDS011;5508;49.150;11.030;2023-06-26T13:49:24;6.55;;;4.97;;
10910;SDS011;5508;49.150;11.030;2023-06-26T13:52:25;5.63;;;5.13;;
10910;SDS011;5508;49.150;11.030;2023-06-26T13:55:25;6.35;;;4.80;;
10910;SDS011;5508;49.150;11.030;2023-06-26T13:58:26;7.65;;;5.30;;
10910;SDS011;5508;49.150;11.030;2023-06-26T14:01:29;6.03;;;5.22;;
10910;SDS011;5508;49.150;11.030;2023-06-26T14:04:30;5.65;;;5.15;;
10910;SDS011;5508;49.150;11.030;2023-06-26T14:07:31;5.68;;;5.07;;
10910;SDS011;5508;49.150;11.030;2023-06-26T14:10:32;5.65;;;5.00;;
10910;SDS011;5508;49.150;11.030;2023-06-26T14:13:36;5.82;;;5.25;;
10910;SDS011;5508;49.150;11.030;2023-06-26T14:16:37;9.20;;;5.07;;
10910;SDS011;5508;49.150;11.030;2023-06-26T14:19:37;5.68;;;4.80;;
10910;SDS011;5508;49.150;11.030;2023-06-26T14:22:39;5.70;;;5.20;;
10910;SDS011;5508;49.150;11.030;2023-06-26T14:25:39;6.07;;;5.47;;
10910;SDS011;5508;49.150;11.030;2023-06-26T14:28:40;7.22;;;5.15;;
10910;SDS011;5508;49.150;11.030;2023-06-26T14:31:40;5.63;;;5.07;;
10910;SDS011;5508;49.150;11.030;2023-06-26T14:34:41;5.55;;;4.75;;
10910;SDS011;5508;49.150;11.030;2023-06-26T14:37:42;7.07;;;6.00;;
10910;SDS011;5508;49.150;11.030;2023-06-26T14:40:43;6.47;;;5.78;;
10910;SDS011;5508;49.150;11.030;2023-06-26T14:43:44;7.15;;;5.40;;
10910;SDS011;5508;49.150;11.030;2023-06-26T14:46:45;5.85;;;5.35;;
10910;SDS011;5508;49.150;11.030;2023-06-26T14:49:46;8.07;;;5.75;;
10910;SDS011;5508;49.150;11.030;2023-06-26T14:52:46;6.20;;;5.70;;
10910;SDS011;5508;49.150;11.030;2023-06-26T14:55:47;6.40;;;5.80;;
10910;SDS011;5508;49.150;11.030;2023-06-26T14:58:48;8.07;;;6.05;;
10910;SDS011;5508;49.150;11.030;2023-06-26T15:01:49;6.82;;;6.05;;
10910;SDS011;5508;49.150;11.030;2023-06-26T15:04:50;7.57;;;5.63;;
10910;SDS011;5508;49.150;11.030;2023-06-26T15:07:50;6.90;;;6.30;;
10910;SDS011;5508;49.150;11.030;2023-06-26T15:10:51;7.82;;;5.85;;
10910;SDS011;5508;49.150;11.030;2023-06-26T15:13:51;6.68;;;5.80;;
10910;SDS011;5508;49.150;11.030;2023-06-26T15:16:52;6.97;;;6.10;;
10910;SDS011;5508;49.150;11.030;2023-06-26T15:19:53;6.50;;;5.90;;
10910;SDS011;5508;49.150;11.030;2023-06-26T15:22:53;6.50;;;5.90;;
10910;SDS011;5508;49.150;11.030;2023-06-26T15:25:54;6.95;;;6.35;;
10910;SDS011;5508;49.150;11.030;2023-06-26T15:28:55;6.88;;;6.25;;
10910;SDS011;5508;49.150;11.030;2023-06-26T15:31:55;6.47;;;5.88;;
10910;SDS011;5508;49.150;11.030;2023-06-26T15:34:56;6.85;;;6.10;;
10910;SDS011;5508;49.150;11.030;2023-06-26T15:37:56;13.00;;;6.15;;
10910;SDS011;5508;49.150;11.030;2023-06-26T15:40:57;7.03;;;6.40;;
10910;SDS011;5508;49.150;11.030;2023-06-26T15:43:58;8.25;;;5.78;;
10910;SDS011;5508;49.150;11.030;2023-06-26T15:46:59;9.88;;;6.80;;
10910;SDS011;5508;49.150;11.030;2023-06-26T15:50:00;6.68;;;6.07;;
10910;SDS011;5508;49.150;11.030;2023-06-26T15:53:02;7.00;;;6.03;;
10910;SDS011;5508;49.150;11.030;2023-06-26T15:56:07;12.60;;;6.75;;
10910;SDS011;5508;49.150;11.030;2023-06-26T15:59:09;6.97;;;6.32;;
10910;SDS011;5508;49.150;11.030;2023-06-26T16:02:09;11.23;;;6.25;;
10910;SDS011;5508;49.150;11.030;2023-06-26T16:05:10;9.25;;;6.72;;
10910;SDS011;5508;49.150;11.030;2023-06-26T16:08:11;7.10;;;6.38;;
10910;SDS011;5508;49.150;11.030;2023-06-26T16:11:11;7.75;;;6.95;;
10910;SDS011;5508;49.150;11.030;2023-06-26T16:14:12;7.15;;;6.40;;
10910;SDS011;5508;49.150;11.030;2023-06-26T16:17:12;7.97;;;6.32;;
10910;SDS011;5508;49.150;11.030;2023-06-26T16:20:13;7.35;;;6.63;;
10910;SDS011;5508;49.150;11.030;2023-06-26T16:23:14;9.60;;;6.25;;
10910;SDS011;5508;49.150;11.030;2023-06-26T16:26:14;8.05;;;7.25;;
10910;SDS011;5508;49.150;11.030;2023-06-26T16:29:15;8.45;;;6.22;;
10910;SDS011;5508;49.150;11.030;2023-06-26T16:32:16;8.57;;;6.93;;
10910;SDS011;5508;49.150;11.030;2023-06-26T16:35:16;10.38;;;6.70;;
10910;SDS011;5508;49.150;11.030;2023-06-26T16:38:17;7.43;;;6.10;;
10910;SDS011;5508;49.150;11.030;2023-06-26T16:41:18;27.10;;;10.75;;
10910;SDS011;5508;49.150;11.030;2023-06-26T16:44:18;8.05;;;5.75;;
10910;SDS011;5508;49.150;11.030;2023-06-26T16:47:22;6.15;;;5.45;;
10910;SDS011;5508;49.150;11.030;2023-06-26T16:50:22;7.13;;;5.50;;
10910;SDS011;5508;49.150;11.030;2023-06-26T16:53:23;7.85;;;5.57;;
10910;SDS011;5508;49.150;11.030;2023-06-26T16:56:24;5.43;;;4.93;;
10910;SDS011;5508;49.150;11.030;2023-06-26T16:59:26;7.03;;;4.57;;
10910;SDS011;5508;49.150;11.030;2023-06-26T17:02:26;5.93;;;5.03;;
10910;SDS011;5508;49.150;11.030;2023-06-26T17:05:29;8.65;;;5.15;;
10910;SDS011;5508;49.150;11.030;2023-06-26T17:08:30;7.53;;;4.30;;
10910;SDS011;5508;49.150;11.030;2023-06-26T17:11:31;6.63;;;4.55;;
10910;SDS011;5508;49.150;11.030;2023-06-26T17:14:31;4.95;;;4.35;;
10910;SDS011;5508;49.150;11.030;2023-06-26T17:17:32;6.65;;;3.88;;
10910;SDS011;5508;49.150;11.030;2023-06-26T17:20:33;4.85;;;4.22;;
10910;SDS011;5508;49.150;11.030;2023-06-26T17:23:34;7.35;;;4.10;;
10910;SDS011;5508;49.150;11.030;2023-06-26T17:26:34;4.72;;;3.95;;
10910;SDS011;5508;49.150;11.030;2023-06-26T17:29:35;5.55;;;3.60;;
10910;SDS011;5508;49.150;11.030;2023-06-26T17:32:35;3.80;;;3.40;;
10910;SDS011;5508;49.150;11.030;2023-06-26T17:35:36;6.05;;;3.65;;
10910;SDS011;5508;49.150;11.030;2023-06-26T17:38:37;4.93;;;4.10;;
10910;SDS011;5508;49.150;11.030;2023-06-26T17:41:39;6.68;;;3.80;;
10910;SDS011;5508;49.150;11.030;2023-06-26T17:44:40;5.47;;;4.00;;
10910;SDS011;5508;49.150;11.030;2023-06-26T17:47:40;9.05;;;3.78;;
10910;SDS011;5508;49.150;11.030;2023-06-26T17:50:41;5.38;;;3.85;;
10910;SDS011;5508;49.150;11.030;2023-06-26T17:53:42;8.52;;;3.83;;
10910;SDS011;5508;49.150;11.030;2023-06-26T17:56:43;6.38;;;4.65;;
10910;SDS011;5508;49.150;11.030;2023-06-26T17:59:46;5.78;;;4.78;;
10910;SDS011;5508;49.150;11.030;2023-06-26T18:02:46;6.75;;;4.70;;
10910;SDS011;5508;49.150;11.030;2023-06-26T18:05:48;6.15;;;4.60;;
10910;SDS011;5508;49.150;11.030;2023-06-26T18:08:50;7.03;;;5.40;;
10910;SDS011;5508;49.150;11.030;2023-06-26T18:11:51;9.70;;;6.10;;
10910;SDS011;5508;49.150;11.030;2023-06-26T18:14:52;10.10;;;6.22;;
10910;SDS011;5508;49.150;11.030;2023-06-26T18:17:53;9.63;;;6.57;;